Time;durP1;ratioP1;P1;durP2;ratioP2;P2;SDS_P1;SDS_P2;PMS_P1;PMS_P2;Temp;Humidity;BMP_temperature;BMP_pressure;BME280_temperature;BME280_humidity;BME280_pressure;Samples;Min_cycle;Max_cycle;Signal;HPM_P1;HPM_P2
2022/04/06 00:00:50;;;;;;;;;;;;;;;17.55;47.16;99385.81;2081150;28;19921;-50
2022/04/06 00:01:51;;;;;;;;;;;;;;;17.55;47.34;99390.41;2084870;28;19927;-47
2022/04/06 00:02:51;;;;;;;;;;;;;;;17.55;47.31;99391.28;2081397;28;19928;-48
2022/04/06 00:03:51;;;;;;;;;;;;;;;17.54;47.36;99378.69;2081050;28;19921;-46
2022/04/06 00:04:52;;;;;;;;;;;;;;;17.55;47.27;99384.97;2082254;28;19929;-45
2022/04/06 00:05:53;;;;;;;;;;;;;;;17.56;47.48;99387.56;2082670;28;19924;-45
2022/04/06 00:06:53;;;;;;;;;;;;;;;17.55;47.33;99382.25;2084474;28;19916;-46
2022/04/06 00:07:53;;;;;;;;;;;;;;;17.55;47.49;99383.09;2078922;28;20385;-45
2022/04/06 00:08:54;;;;;;;;;;;;;;;17.55;47.40;99384.97;2082870;28;19943;-47
2022/04/06 00:09:54;;;;;;;;;;;;;;;17.53;47.41;99376.94;2076930;28;19924;-47
2022/04/06 00:10:55;;;;;;;;;;;;;;;17.54;47.40;99378.69;2082691;28;19911;-45
2022/04/06 00:11:55;;;;;;;;;;;;;;;17.55;47.38;99384.97;2083928;28;19928;-46
2022/04/06 00:12:55;;;;;;;;;;;;;;;17.54;47.50;99384.13;2080470;28;19913;-46
2022/04/06 00:13:56;;;;;;;;;;;;;;;17.52;47.35;99377.97;2084153;28;20448;-46
2022/04/06 00:14:56;;;;;;;;;;;;;;;17.54;47.34;99378.69;2089371;28;20154;-48
2022/04/06 00:15:57;;;;;;;;;;;;;;;17.54;47.16;99378.69;2089039;28;19935;-46
2022/04/06 00:17:02;;;;;;;;;;;;;;;17.53;47.40;99370.66;2083027;28;20177;-47
2022/04/06 00:18:03;;;;;;;;;;;;;;;17.53;47.24;99368.78;2080516;28;19921;-46
2022/04/06 00:19:03;;;;;;;;;;;;;;;17.53;47.44;99368.78;2084125;28;19920;-46
2022/04/06 00:20:04;;;;;;;;;;;;;;;17.52;47.47;99366.22;2083974;28;19959;-48
2022/04/06 00:21:05;;;;;;;;;;;;;;;17.50;47.43;99366.38;2082899;28;20232;-47
2022/04/06 00:22:05;;;;;;;;;;;;;;;17.51;47.54;99364.50;2082754;28;20182;-46
2022/04/06 00:23:06;;;;;;;;;;;;;;;17.51;47.31;99365.34;2077007;28;19970;-47
2022/04/06 00:24:06;;;;;;;;;;;;;;;17.51;47.30;99362.63;2082789;28;19920;-48
2022/04/06 00:25:07;;;;;;;;;;;;;;;17.52;47.39;99364.34;2080737;28;20373;-49
2022/04/06 00:26:07;;;;;;;;;;;;;;;17.51;47.26;99356.31;2079213;28;19940;-46
2022/04/06 00:27:08;;;;;;;;;;;;;;;17.52;47.41;99358.91;2083720;28;19939;-48
2022/04/06 00:28:08;;;;;;;;;;;;;;;17.52;47.54;99358.91;2086108;28;20385;-46
2022/04/06 00:29:08;;;;;;;;;;;;;;;17.52;47.27;99358.03;2079033;28;19924;-46
2022/04/06 00:30:09;;;;;;;;;;;;;;;17.53;47.35;99351.56;2079076;28;20423;-46
2022/04/06 00:31:09;;;;;;;;;;;;;;;17.51;47.45;99346.25;2076379;28;19925;-46
2022/04/06 00:32:10;;;;;;;;;;;;;;;17.54;47.57;99356.00;2078532;28;19925;-47
2022/04/06 00:33:10;;;;;;;;;;;;;;;17.54;47.36;99348.69;2082848;28;19927;-46
2022/04/06 00:34:11;;;;;;;;;;;;;;;17.53;47.66;99355.16;2082450;28;19921;-46
2022/04/06 00:35:29;;;;;;;;;;;;;;;17.54;47.57;99353.28;2081374;28;19920;-46
2022/04/06 00:36:30;;;;;;;;;;;;;;;17.54;47.50;99356.88;2083226;28;20153;-46
2022/04/06 00:37:30;;;;;;;;;;;;;;;17.54;47.40;99351.44;2080622;28;20257;-47
2022/04/06 00:38:31;;;;;;;;;;;;;;;17.55;47.50;99352.28;2083410;28;19920;-49
2022/04/06 00:39:31;;;;;;;;;;;;;;;17.55;47.34;99346.81;2083917;28;20349;-46
2022/04/06 00:40:33;;;;;;;;;;;;;;;17.56;47.26;99356.69;2082453;28;19908;-47
2022/04/06 00:41:33;;;;;;;;;;;;;;;17.55;47.50;99355.84;2088759;28;19951;-46
2022/04/06 00:42:34;;;;;;;;;;;;;;;17.54;47.25;99348.69;2086206;28;19951;-46
2022/04/06 00:43:35;;;;;;;;;;;;;;;17.55;47.44;99350.41;2084282;28;19973;-46
2022/04/06 00:44:35;;;;;;;;;;;;;;;17.55;47.35;99346.81;2078215;28;20226;-46
2022/04/06 00:45:35;;;;;;;;;;;;;;;17.55;47.61;99346.81;2079407;28;20294;-47
2022/04/06 00:46:36;;;;;;;;;;;;;;;17.55;47.59;99346.81;2081206;28;20147;-46
2022/04/06 00:47:36;;;;;;;;;;;;;;;17.54;47.45;99345.97;2082913;28;20009;-47
2022/04/06 00:48:36;;;;;;;;;;;;;;;17.54;47.34;99345.09;2083708;28;20170;-45
2022/04/06 00:49:37;;;;;;;;;;;;;;;17.54;47.37;99337.81;2081296;28;20393;-47
2022/04/06 00:50:38;;;;;;;;;;;;;;;17.54;47.36;99334.19;2082557;28;19955;-46
2022/04/06 00:51:40;;;;;;;;;;;;;;;17.51;47.62;99335.38;2081851;28;19939;-46
2022/04/06 00:52:40;;;;;;;;;;;;;;;17.54;47.59;99340.53;2082031;28;19988;-46
2022/04/06 00:53:41;;;;;;;;;;;;;;;17.54;47.43;99345.09;2084516;28;19920;-45
2022/04/06 00:54:41;;;;;;;;;;;;;;;17.52;47.49;99337.09;2078543;28;19920;-46
2022/04/06 00:55:42;;;;;;;;;;;;;;;17.53;47.60;99333.34;2079357;28;20354;-45
2022/04/06 00:56:44;;;;;;;;;;;;;;;17.54;47.57;99339.63;2083132;28;20310;-45
2022/04/06 00:57:44;;;;;;;;;;;;;;;17.53;47.50;99337.94;2078858;28;19912;-46
2022/04/06 00:58:45;;;;;;;;;;;;;;;17.52;47.42;99337.09;2082840;28;19917;-47
2022/04/06 00:59:47;;;;;;;;;;;;;;;17.52;47.39;99339.81;2081270;28;19981;-46
2022/04/06 01:00:47;;;;;;;;;;;;;;;17.52;47.56;99325.34;2083173;28;20147;-47
2022/04/06 01:01:49;;;;;;;;;;;;;;;17.52;47.38;99337.09;2081409;28;19920;-45
2022/04/06 01:02:50;;;;;;;;;;;;;;;17.52;47.61;99328.91;2080148;28;19909;-46
2022/04/06 01:03:50;;;;;;;;;;;;;;;17.52;47.53;99328.06;2081338;28;19920;-46
2022/04/06 01:04:50;;;;;;;;;;;;;;;17.52;47.38;99331.66;2082355;28;20382;-46
2022/04/06 01:05:51;;;;;;;;;;;;;;;17.51;47.43;99321.75;2081649;28;19928;-46
2022/04/06 01:06:52;;;;;;;;;;;;;;;17.51;47.36;99327.19;2081387;28;20321;-46
2022/04/06 01:07:55;;;;;;;;;;;;;;;17.51;47.65;99329.91;2083213;28;20241;-47
2022/04/06 01:08:56;;;;;;;;;;;;;;;17.51;47.46;99323.63;2081108;28;19969;-45
2022/04/06 01:09:57;;;;;;;;;;;;;;;17.50;47.60;99327.38;2080836;28;19921;-46
2022/04/06 01:10:58;;;;;;;;;;;;;;;17.50;47.59;99322.78;2081758;28;19916;-46
2022/04/06 01:11:59;;;;;;;;;;;;;;;17.50;47.57;99322.78;2084521;28;19926;-45
2022/04/06 01:13:00;;;;;;;;;;;;;;;17.49;47.62;99326.53;2082225;28;19926;-47
2022/04/06 01:14:01;;;;;;;;;;;;;;;17.50;47.65;99321.91;2083248;28;19932;-46
2022/04/06 01:15:01;;;;;;;;;;;;;;;17.49;47.52;99326.53;2084610;28;20196;-46
2022/04/06 01:16:02;;;;;;;;;;;;;;;17.49;47.57;99320.19;2084390;28;19924;-46
2022/04/06 01:17:04;;;;;;;;;;;;;;;17.49;47.72;99321.06;2077958;28;19936;-47
2022/04/06 01:18:04;;;;;;;;;;;;;;;17.48;47.51;99313.88;2083693;28;19912;-47
2022/04/06 01:19:04;;;;;;;;;;;;;;;17.47;47.55;99306.75;2080579;28;20379;-46
2022/04/06 01:20:07;;;;;;;;;;;;;;;17.48;47.56;99324.78;2083509;28;20933;-46
2022/04/06 01:21:08;;;;;;;;;;;;;;;17.48;47.53;99315.78;2082403;28;19958;-46
2022/04/06 01:22:14;;;;;;;;;;;;;;;17.46;47.62;99310.47;2081235;28;19990;-46
2022/04/06 01:23:14;;;;;;;;;;;;;;;17.47;47.67;99311.34;2084455;28;19912;-45
2022/04/06 01:24:15;;;;;;;;;;;;;;;17.47;47.57;99309.47;2079870;28;19921;-46
2022/04/06 01:25:15;;;;;;;;;;;;;;;17.47;47.67;99306.75;2083113;28;19920;-47
2022/04/06 01:26:15;;;;;;;;;;;;;;;17.46;47.69;99310.47;2077248;28;20008;-46
2022/04/06 01:27:16;;;;;;;;;;;;;;;17.47;47.71;99312.19;2077691;28;19923;-46
2022/04/06 01:28:16;;;;;;;;;;;;;;;17.47;47.58;99309.47;2080212;28;20815;-46
2022/04/06 01:29:17;;;;;;;;;;;;;;;17.47;47.71;99305.91;2077805;28;19920;-45
2022/04/06 01:30:17;;;;;;;;;;;;;;;17.46;47.65;99305.00;2081566;28;19916;-48
2022/04/06 01:31:18;;;;;;;;;;;;;;;17.46;47.64;99310.47;2083286;28;19966;-46
2022/04/06 01:32:23;;;;;;;;;;;;;;;17.45;47.61;99307.91;2080566;28;19925;-46
2022/04/06 01:33:23;;;;;;;;;;;;;;;17.45;47.60;99308.78;2084649;28;19921;-46
2022/04/06 01:34:24;;;;;;;;;;;;;;;17.44;47.58;99307.06;2086444;28;20440;-46
2022/04/06 01:35:24;;;;;;;;;;;;;;;17.45;47.83;99311.50;2082988;28;20184;-46
2022/04/06 01:36:25;;;;;;;;;;;;;;;17.45;47.76;99310.63;2081927;28;19975;-46
2022/04/06 01:37:25;;;;;;;;;;;;;;;17.45;47.71;99313.38;2084108;28;19920;-45
2022/04/06 01:38:26;;;;;;;;;;;;;;;17.43;47.59;99310.78;2081231;28;19951;-45
2022/04/06 01:39:26;;;;;;;;;;;;;;;17.44;47.84;99317.97;2084725;28;19920;-50
2022/04/06 01:40:26;;;;;;;;;;;;;;;17.44;47.77;99312.53;2075003;28;19920;-47
2022/04/06 01:41:31;;;;;;;;;;;;;;;17.43;47.79;99310.78;2083206;28;19927;-47
2022/04/06 01:42:31;;;;;;;;;;;;;;;17.43;47.76;99305.34;2096891;28;19974;-50
2022/04/06 01:43:32;;;;;;;;;;;;;;;17.44;47.51;99312.53;2094718;28;20573;-47
2022/04/06 01:44:33;;;;;;;;;;;;;;;17.44;47.68;99312.53;2083343;28;19917;-46
2022/04/06 01:45:33;;;;;;;;;;;;;;;17.45;47.66;99314.22;2079520;28;19927;-50
2022/04/06 01:46:34;;;;;;;;;;;;;;;17.44;47.57;99309.78;2081770;28;19917;-47
2022/04/06 01:47:34;;;;;;;;;;;;;;;17.46;47.85;99312.34;2082553;28;20220;-46
2022/04/06 01:52:11;;;;;;;;;;;;;;;17.46;47.85;99313.19;2079454;28;19917;-46
2022/04/06 01:52:33;;;;;;;;;;;;;;;17.46;47.88;99310.47;2083796;28;19920;-47
2022/04/06 01:53:33;;;;;;;;;;;;;;;17.46;47.96;99310.47;2080273;28;20288;-48
2022/04/06 01:54:34;;;;;;;;;;;;;;;17.47;48.09;99303.16;2075019;28;20015;-47
2022/04/06 01:55:34;;;;;;;;;;;;;;;17.47;47.84;99300.44;2080183;28;19931;-45
2022/04/06 01:56:34;;;;;;;;;;;;;;;17.46;48.00;99310.47;2082658;28;20146;-47
2022/04/06 01:57:35;;;;;;;;;;;;;;;17.47;47.98;99306.75;2079648;28;19932;-50
2022/04/06 01:58:35;;;;;;;;;;;;;;;17.46;47.79;99302.28;2085404;28;20803;-46
2022/04/06 01:59:36;;;;;;;;;;;;;;;17.46;47.90;99305.00;2080867;28;20792;-46
2022/04/06 02:00:37;;;;;;;;;;;;;;;17.45;47.86;99297.88;2083909;28;19989;-46
2022/04/06 02:01:37;;;;;;;;;;;;;;;17.45;47.78;99297.88;2079111;28;20182;-46
2022/04/06 02:02:38;;;;;;;;;;;;;;;17.46;47.72;99296.00;2082703;28;19924;-47
2022/04/06 02:03:39;;;;;;;;;;;;;;;17.46;48.08;99299.56;2078231;28;19932;-48
2022/04/06 02:04:41;;;;;;;;;;;;;;;17.47;47.75;99295.84;2078323;28;19927;-48
2022/04/06 02:05:42;;;;;;;;;;;;;;;17.47;47.93;99295.00;2079992;28;20288;-46
2022/04/06 02:06:42;;;;;;;;;;;;;;;17.46;47.68;99293.28;2075885;28;19925;-46
2022/04/06 02:07:43;;;;;;;;;;;;;;;17.46;47.86;99298.72;2080616;28;19921;-46
2022/04/06 02:08:43;;;;;;;;;;;;;;;17.47;47.85;99297.72;2081027;28;19924;-46
2022/04/06 02:09:43;;;;;;;;;;;;;;;17.46;47.89;99298.72;2080048;28;19960;-46
2022/04/06 02:10:44;;;;;;;;;;;;;;;17.46;47.79;99283.22;2082149;28;19920;-49
2022/04/06 02:11:44;;;;;;;;;;;;;;;17.46;47.68;99287.81;2077363;28;19916;-46
2022/04/06 02:12:45;;;;;;;;;;;;;;;17.46;47.88;99285.94;2079610;28;19924;-47
2022/04/06 02:13:45;;;;;;;;;;;;;;;17.45;47.76;99281.53;2082626;28;20696;-46
2022/04/06 02:14:46;;;;;;;;;;;;;;;17.46;47.94;99283.22;2082675;28;19995;-49
2022/04/06 02:15:46;;;;;;;;;;;;;;;17.46;47.98;99288.66;2083853;28;19924;-46
2022/04/06 02:16:47;;;;;;;;;;;;;;;17.45;47.92;99286.97;2081174;28;19920;-46
2022/04/06 02:17:47;;;;;;;;;;;;;;;17.45;47.71;99281.53;2080973;28;19920;-47
2022/04/06 02:18:48;;;;;;;;;;;;;;;17.46;47.75;99285.94;2078297;28;19928;-49
2022/04/06 02:19:48;;;;;;;;;;;;;;;17.46;47.85;99288.66;2080631;28;19923;-46
2022/04/06 02:20:49;;;;;;;;;;;;;;;17.46;47.74;99280.50;2079767;28;19928;-46
2022/04/06 02:21:49;;;;;;;;;;;;;;;17.44;47.73;99282.56;2081031;28;19920;-46
2022/04/06 02:22:49;;;;;;;;;;;;;;;17.45;47.95;99284.25;2079815;28;19926;-46
2022/04/06 02:23:50;;;;;;;;;;;;;;;17.44;47.75;99279.81;2082706;28;20365;-46
2022/04/06 02:24:50;;;;;;;;;;;;;;;17.45;47.83;99284.25;2079766;28;20009;-46
2022/04/06 02:25:51;;;;;;;;;;;;;;;17.44;47.73;99274.38;2084194;28;19917;-46
2022/04/06 02:26:51;;;;;;;;;;;;;;;17.43;47.87;99280.81;2080676;28;19917;-47
2022/04/06 02:27:53;;;;;;;;;;;;;;;17.43;48.01;99278.09;2084557;28;20319;-49
2022/04/06 02:28:54;;;;;;;;;;;;;;;17.44;48.01;99279.81;2081617;28;19923;-46
2022/04/06 02:29:54;;;;;;;;;;;;;;;17.43;47.74;99279.97;2082096;28;19920;-46
2022/04/06 02:30:55;;;;;;;;;;;;;;;17.42;48.04;99275.53;2083410;28;19917;-46
2022/04/06 02:31:55;;;;;;;;;;;;;;;17.42;47.70;99273.69;2080161;28;20201;-46
2022/04/06 02:32:55;;;;;;;;;;;;;;;17.41;47.92;99276.53;2083192;28;20013;-46
2022/04/06 02:33:55;;;;;;;;;;;;;;;17.42;47.92;99270.94;2080975;28;20144;-48
2022/04/06 02:34:56;;;;;;;;;;;;;;;17.41;47.97;99271.94;2083989;28;19921;-48
2022/04/06 02:35:56;;;;;;;;;;;;;;;17.41;47.73;99274.66;2081265;28;20610;-45
2022/04/06 02:36:56;;;;;;;;;;;;;;;17.42;48.07;99270.94;2077641;28;20394;-46
2022/04/06 02:37:57;;;;;;;;;;;;;;;17.42;47.95;99272.78;2082744;28;20317;-46
2022/04/06 02:38:57;;;;;;;;;;;;;;;17.41;47.77;99262.94;2081261;28;20380;-46
2022/04/06 02:39:57;;;;;;;;;;;;;;;17.42;47.87;99270.06;2083701;28;19926;-46
2022/04/06 02:40:58;;;;;;;;;;;;;;;17.42;47.76;99270.94;2082883;28;19924;-46
2022/04/06 02:41:58;;;;;;;;;;;;;;;17.42;47.93;99270.94;2078792;28;19920;-49
2022/04/06 02:42:59;;;;;;;;;;;;;;;17.41;47.86;99268.38;2080021;28;19935;-47
2022/04/06 02:43:59;;;;;;;;;;;;;;;17.41;47.72;99269.22;2079595;28;19920;-46
2022/04/06 02:44:59;;;;;;;;;;;;;;;17.41;47.93;99268.38;2081343;28;20025;-46
2022/04/06 02:46:00;;;;;;;;;;;;;;;17.40;47.87;99262.06;2083183;28;19947;-45
2022/04/06 02:47:00;;;;;;;;;;;;;;;17.42;47.81;99264.63;2080529;28;19920;-46
2022/04/06 02:48:01;;;;;;;;;;;;;;;17.41;47.72;99261.03;2081559;28;20371;-47
2022/04/06 02:49:01;;;;;;;;;;;;;;;17.41;47.80;99262.94;2092551;28;19947;-45
2022/04/06 02:50:01;;;;;;;;;;;;;;;17.40;47.96;99272.13;2097628;28;20111;-47
2022/04/06 02:51:02;;;;;;;;;;;;;;;17.40;47.90;99262.06;2079301;28;20476;-47
2022/04/06 02:52:02;;;;;;;;;;;;;;;17.38;47.95;99258.66;2081443;28;20196;-46
2022/04/06 02:53:02;;;;;;;;;;;;;;;17.39;47.94;99259.50;2082370;28;20281;-47
2022/04/06 02:54:03;;;;;;;;;;;;;;;17.38;48.14;99269.53;2078841;28;19920;-46
2022/04/06 02:55:03;;;;;;;;;;;;;;;17.38;48.01;99264.09;2081452;28;19927;-46
2022/04/06 02:56:04;;;;;;;;;;;;;;;17.38;48.03;99265.97;2080858;28;20715;-46
2022/04/06 02:57:06;;;;;;;;;;;;;;;17.37;47.91;99267.84;2087360;28;19962;-46
2022/04/06 02:58:06;;;;;;;;;;;;;;;17.38;48.00;99264.09;2082164;28;20204;-47
2022/04/06 02:59:06;;;;;;;;;;;;;;;17.37;48.01;99267.84;2085670;28;19927;-48
2022/04/06 03:00:07;;;;;;;;;;;;;;;17.37;47.89;99267.84;2080581;28;19920;-46
2022/04/06 03:01:07;;;;;;;;;;;;;;;17.37;47.80;99267.84;2084527;28;19921;-47
2022/04/06 03:02:08;;;;;;;;;;;;;;;17.37;47.83;99267.84;2090958;28;19920;-47
2022/04/06 03:03:08;;;;;;;;;;;;;;;17.38;47.95;99264.09;2083534;28;20455;-46
2022/04/06 03:04:08;;;;;;;;;;;;;;;17.37;47.83;99267.84;2082104;28;20246;-47
2022/04/06 03:05:09;;;;;;;;;;;;;;;17.38;48.03;99268.69;2080985;28;19964;-48
2022/04/06 03:06:09;;;;;;;;;;;;;;;17.37;47.93;99256.94;2083108;28;19920;-49
2022/04/06 03:07:09;;;;;;;;;;;;;;;17.38;47.95;99264.09;2081283;28;20008;-47
2022/04/06 03:08:10;;;;;;;;;;;;;;;17.39;47.96;99260.34;2082656;28;20295;-47
2022/04/06 03:09:11;;;;;;;;;;;;;;;17.39;47.80;99260.34;2082104;28;19920;-46
2022/04/06 03:10:11;;;;;;;;;;;;;;;17.39;48.05;99256.78;2080634;28;19920;-46
2022/04/06 03:11:11;;;;;;;;;;;;;;;17.39;47.88;99260.34;2084587;28;20174;-48
2022/04/06 03:12:12;;;;;;;;;;;;;;;17.39;47.98;99254.91;2083823;28;19948;-46
2022/04/06 03:13:12;;;;;;;;;;;;;;;17.40;48.00;99258.50;2084137;28;19932;-46
2022/04/06 03:14:13;;;;;;;;;;;;;;;17.39;48.15;99249.44;2082006;28;19960;-48
2022/04/06 03:15:14;;;;;;;;;;;;;;;17.39;47.96;99252.16;2077205;28;19929;-46
2022/04/06 03:16:15;;;;;;;;;;;;;;;17.39;47.90;99257.63;2079341;28;20565;-46
2022/04/06 03:17:16;;;;;;;;;;;;;;;17.40;48.18;99250.31;2083915;28;20319;-45
2022/04/06 03:18:16;;;;;;;;;;;;;;;17.38;48.01;99247.75;2082324;28;20291;-46
2022/04/06 03:19:16;;;;;;;;;;;;;;;17.39;47.99;99252.16;2083942;28;19936;-49
2022/04/06 03:20:17;;;;;;;;;;;;;;;17.40;47.89;99251.19;2081586;28;19912;-46
2022/04/06 03:21:17;;;;;;;;;;;;;;;17.40;48.20;99256.63;2081259;28;19927;-46
2022/04/06 03:22:18;;;;;;;;;;;;;;;17.40;47.97;99256.63;2079889;28;19932;-47
2022/04/06 03:23:18;;;;;;;;;;;;;;;17.41;48.26;99252.03;2081508;28;20296;-46
2022/04/06 03:24:18;;;;;;;;;;;;;;;17.40;47.97;99253.91;2084799;28;21751;-46
2022/04/06 03:25:19;;;;;;;;;;;;;;;17.39;48.00;99249.44;2079454;28;20295;-45
2022/04/06 03:26:19;;;;;;;;;;;;;;;17.39;48.08;99252.16;2083229;28;19959;-46
2022/04/06 03:27:19;;;;;;;;;;;;;;;17.39;48.19;99254.91;2079068;28;20294;-47
2022/04/06 03:28:20;;;;;;;;;;;;;;;17.39;48.07;99251.31;2081977;28;19924;-47
2022/04/06 03:29:20;;;;;;;;;;;;;;;17.39;48.16;99241.28;2085427;28;19924;-46
2022/04/06 03:30:20;;;;;;;;;;;;;;;17.39;47.94;99244.00;2079875;28;20048;-45
2022/04/06 03:31:21;;;;;;;;;;;;;;;17.38;47.89;99245.03;2082787;28;20058;-46
2022/04/06 03:32:21;;;;;;;;;;;;;;;17.39;48.11;99249.44;2083983;28;20148;-46
2022/04/06 03:33:21;;;;;;;;;;;;;;;17.39;48.07;99254.06;2082524;28;19946;-45
2022/04/06 03:34:22;;;;;;;;;;;;;;;17.38;48.04;99250.47;2081505;28;20442;-45
2022/04/06 03:35:22;;;;;;;;;;;;;;;17.39;47.95;99248.59;2082300;28;19932;-46
2022/04/06 03:36:22;;;;;;;;;;;;;;;17.39;48.02;99249.44;2082410;28;19928;-47
2022/04/06 03:37:23;;;;;;;;;;;;;;;17.39;47.83;99249.44;2083739;28;19916;-45
2022/04/06 03:38:23;;;;;;;;;;;;;;;17.38;47.95;99247.75;2083027;28;20184;-46
2022/04/06 03:39:23;;;;;;;;;;;;;;;17.39;47.89;99251.31;2080326;28;19926;-46
2022/04/06 03:40:24;;;;;;;;;;;;;;;17.39;47.98;99237.69;2083681;28;20230;-48
2022/04/06 03:41:24;;;;;;;;;;;;;;;17.38;47.97;99246.91;2083914;28;19924;-46
2022/04/06 03:42:25;;;;;;;;;;;;;;;17.38;48.08;99245.03;2080503;28;20002;-47
2022/04/06 03:43:25;;;;;;;;;;;;;;;17.39;48.06;99237.69;2081035;28;19967;-45
2022/04/06 03:44:25;;;;;;;;;;;;;;;17.38;48.09;99234.13;2079075;28;19939;-45
2022/04/06 03:45:26;;;;;;;;;;;;;;;17.38;48.21;99242.31;2082980;28;19925;-45
2022/04/06 03:46:26;;;;;;;;;;;;;;;17.39;48.16;99243.16;2085893;28;19955;-45
2022/04/06 03:47:31;;;;;;;;;;;;;;;17.38;47.95;99242.31;2082671;28;21314;-45
2022/04/06 03:48:31;;;;;;;;;;;;;;;17.36;48.06;99233.44;2082007;28;19916;-46
2022/04/06 03:49:31;;;;;;;;;;;;;;;17.37;48.01;99235.16;2083327;28;19999;-45
2022/04/06 03:50:32;;;;;;;;;;;;;;;17.36;48.15;99233.44;2080663;28;20847;-47
2022/04/06 03:51:32;;;;;;;;;;;;;;;17.35;48.06;99232.59;2079651;28;21422;-47
2022/04/06 03:52:32;;;;;;;;;;;;;;;17.36;48.16;99233.44;2082185;28;20667;-46
2022/04/06 03:53:33;;;;;;;;;;;;;;;17.34;48.33;99232.72;2082173;28;19924;-46
2022/04/06 03:54:33;;;;;;;;;;;;;;;17.34;48.11;99236.34;2083436;28;20127;-45
2022/04/06 03:55:33;;;;;;;;;;;;;;;17.35;47.99;99223.56;2081211;28;19924;-46
2022/04/06 03:56:33;;;;;;;;;;;;;;;17.34;48.19;99232.72;2079903;28;19966;-45
2022/04/06 03:57:37;;;;;;;;;;;;;;;17.35;48.11;99231.72;2083319;28;20628;-46
2022/04/06 03:58:37;;;;;;;;;;;;;;;17.35;47.93;99229.00;2082766;28;20416;-46
2022/04/06 03:59:38;;;;;;;;;;;;;;;17.34;48.10;99230.00;2083679;28;19933;-46
2022/04/06 04:00:38;;;;;;;;;;;;;;;17.34;47.92;99236.34;2080417;28;20380;-46
2022/04/06 04:01:38;;;;;;;;;;;;;;;17.35;48.00;99231.72;2079437;28;19920;-46
2022/04/06 04:02:39;;;;;;;;;;;;;;;17.34;48.33;99236.34;2079918;28;19921;-45
2022/04/06 04:03:39;;;;;;;;;;;;;;;17.34;48.09;99230.88;2078790;28;19916;-46
2022/04/06 04:04:39;;;;;;;;;;;;;;;17.35;48.06;99237.19;2079330;28;19920;-47
2022/04/06 04:05:40;;;;;;;;;;;;;;;17.34;48.01;99224.56;2080948;28;21340;-47
2022/04/06 04:06:40;;;;;;;;;;;;;;;17.34;48.03;99230.00;2077865;28;20303;-47
2022/04/06 04:07:40;;;;;;;;;;;;;;;17.33;48.21;99226.44;2081863;28;19927;-46
2022/04/06 04:08:41;;;;;;;;;;;;;;;17.33;48.10;99233.75;2079601;28;19967;-48
2022/04/06 04:09:41;;;;;;;;;;;;;;;17.33;48.23;99228.31;2082158;28;20054;-47
2022/04/06 04:10:41;;;;;;;;;;;;;;;17.31;48.27;99225.72;2078188;28;20246;-47
2022/04/06 04:11:42;;;;;;;;;;;;;;;17.32;48.06;99226.56;2081958;28;19928;-47
2022/04/06 04:12:42;;;;;;;;;;;;;;;17.31;48.16;99225.72;2078597;28;20153;-47
2022/04/06 04:13:43;;;;;;;;;;;;;;;17.31;48.05;99223.00;2082496;28;20686;-46
2022/04/06 04:14:44;;;;;;;;;;;;;;;17.31;48.28;99219.44;2079138;28;19913;-46
2022/04/06 04:15:44;;;;;;;;;;;;;;;17.30;48.26;99221.31;2076199;28;19947;-46
2022/04/06 04:16:45;;;;;;;;;;;;;;;17.29;48.02;99216.84;2080204;28;19955;-47
2022/04/06 04:17:45;;;;;;;;;;;;;;;17.29;48.14;99222.31;2081248;28;20338;-46
2022/04/06 04:18:45;;;;;;;;;;;;;;;17.30;48.23;99223.19;2081316;28;19924;-46
2022/04/06 04:19:45;;;;;;;;;;;;;;;17.29;48.23;99222.31;2080902;28;20235;-46
2022/04/06 04:20:46;;;;;;;;;;;;;;;17.30;47.93;99224.03;2077677;28;20316;-47
2022/04/06 04:21:46;;;;;;;;;;;;;;;17.30;48.14;99217.75;2080878;28;19923;-49
2022/04/06 04:22:47;;;;;;;;;;;;;;;17.30;48.29;99223.19;2082846;28;20349;-47
2022/04/06 04:23:48;;;;;;;;;;;;;;;17.31;48.20;99228.47;2079145;28;20354;-47
2022/04/06 04:24:48;;;;;;;;;;;;;;;17.31;48.13;99224.88;2079676;28;19924;-46
2022/04/06 04:25:48;;;;;;;;;;;;;;;17.31;47.95;99214.00;2080267;28;19929;-47
2022/04/06 04:26:49;;;;;;;;;;;;;;;17.31;48.17;99222.16;2078577;28;21004;-46
2022/04/06 04:27:49;;;;;;;;;;;;;;;17.30;47.85;99217.75;2080621;28;19925;-46
2022/04/06 04:28:49;;;;;;;;;;;;;;;17.31;48.04;99220.28;2081101;28;19925;-48
2022/04/06 04:29:50;;;;;;;;;;;;;;;17.30;48.12;99224.03;2080100;28;20017;-47
2022/04/06 04:30:50;;;;;;;;;;;;;;;17.30;48.06;99223.19;2078821;28;19967;-46
2022/04/06 04:31:50;;;;;;;;;;;;;;;17.30;47.93;99224.03;2080875;28;20349;-47
2022/04/06 04:32:50;;;;;;;;;;;;;;;17.31;48.08;99227.59;2078837;28;20251;-46
2022/04/06 04:33:51;;;;;;;;;;;;;;;17.31;48.02;99224.88;2083170;28;20103;-47
2022/04/06 04:34:51;;;;;;;;;;;;;;;17.30;48.06;99224.03;2077141;28;20045;-47
2022/04/06 04:35:51;;;;;;;;;;;;;;;17.32;48.17;99218.41;2079633;28;19970;-48
2022/04/06 04:36:53;;;;;;;;;;;;;;;17.30;47.79;99224.03;2076977;28;19932;-48
2022/04/06 04:37:53;;;;;;;;;;;;;;;17.31;47.89;99219.44;2076507;28;20011;-47
2022/04/06 04:38:54;;;;;;;;;;;;;;;17.30;47.99;99217.75;2079542;28;20302;-48
2022/04/06 04:39:54;;;;;;;;;;;;;;;17.31;48.10;99231.19;2094599;28;20199;-47
2022/04/06 04:40:54;;;;;;;;;;;;;;;17.31;48.08;99225.72;2095943;28;19920;-48
2022/04/06 04:41:55;;;;;;;;;;;;;;;17.30;48.02;99223.19;2078524;28;20007;-50
2022/04/06 04:42:55;;;;;;;;;;;;;;;17.30;48.11;99220.47;2080585;28;19920;-47
2022/04/06 04:43:56;;;;;;;;;;;;;;;17.30;48.17;99221.31;2080005;28;19916;-47
2022/04/06 04:44:56;;;;;;;;;;;;;;;17.31;48.04;99219.44;2082458;28;19920;-50
2022/04/06 04:45:57;;;;;;;;;;;;;;;17.33;47.93;99220.13;2076621;28;20475;-48
2022/04/06 04:46:58;;;;;;;;;;;;;;;17.32;48.03;99226.56;2081164;28;19925;-47
2022/04/06 04:47:59;;;;;;;;;;;;;;;17.31;47.87;99230.34;2077757;28;20580;-47
2022/04/06 04:48:59;;;;;;;;;;;;;;;17.31;47.89;99231.19;2079625;28;19920;-47
2022/04/06 04:49:59;;;;;;;;;;;;;;;17.31;47.95;99224.88;2078304;28;19964;-49
2022/04/06 04:51:00;;;;;;;;;;;;;;;17.31;47.77;99231.19;2078304;28;19920;-48
2022/04/06 04:52:00;;;;;;;;;;;;;;;17.33;47.91;99228.31;2079214;28;19917;-46
2022/04/06 04:53:00;;;;;;;;;;;;;;;17.34;47.79;99227.28;2080825;28;20343;-48
2022/04/06 04:54:01;;;;;;;;;;;;;;;17.35;47.98;99234.47;2081829;28;19966;-47
2022/04/06 04:55:01;;;;;;;;;;;;;;;17.34;47.93;99235.44;2080642;28;19955;-50
2022/04/06 04:56:01;;;;;;;;;;;;;;;17.35;48.15;99232.59;2084035;28;20232;-48
2022/04/06 04:57:02;;;;;;;;;;;;;;;17.37;48.03;99229.72;2076971;28;20521;-48
2022/04/06 04:58:02;;;;;;;;;;;;;;;17.39;47.84;99234.97;2080253;28;19924;-49
2022/04/06 04:59:03;;;;;;;;;;;;;;;17.38;47.95;99236.84;2081602;28;19926;-47
2022/04/06 05:00:06;;;;;;;;;;;;;;;17.41;47.98;99238.41;2081080;28;19920;-49
2022/04/06 05:01:08;;;;;;;;;;;;;;;17.40;47.77;99234.84;2085001;28;19920;-48
2022/04/06 05:02:08;;;;;;;;;;;;;;;17.41;47.73;99233.81;2083712;28;20227;-47
2022/04/06 05:03:08;;;;;;;;;;;;;;;17.41;47.93;99241.97;2084599;28;20145;-47
2022/04/06 05:04:09;;;;;;;;;;;;;;;17.41;47.72;99235.69;2079456;28;20014;-47
2022/04/06 05:05:11;;;;;;;;;;;;;;;17.42;47.85;99238.25;2079010;28;20016;-48
2022/04/06 05:06:12;;;;;;;;;;;;;;;17.36;48.08;99241.59;2081148;28;20378;-47
2022/04/06 05:07:12;;;;;;;;;;;;;;;17.27;47.96;99234.38;2081136;28;19951;-48
2022/04/06 05:08:12;;;;;;;;;;;;;;;17.26;47.97;99238.97;2081745;28;20286;-49
2022/04/06 05:09:13;;;;;;;;;;;;;;;17.23;47.72;99238.44;2079281;28;20515;-52
2022/04/06 05:10:13;;;;;;;;;;;;;;;17.25;48.14;99237.28;2081322;28;20133;-45
2022/04/06 05:11:13;;;;;;;;;;;;;;;17.25;48.27;99252.78;2083229;28;19921;-47
2022/04/06 05:12:14;;;;;;;;;;;;;;;17.25;48.22;99247.31;2075419;28;20111;-60
2022/04/06 05:13:15;;;;;;;;;;;;;;;17.28;48.09;99247.00;2074206;28;19924;-49
2022/04/06 05:14:15;;;;;;;;;;;;;;;17.31;48.09;99246.69;2078202;28;20642;-59
2022/04/06 05:15:15;;;;;;;;;;;;;;;17.36;48.22;99245.19;2076216;28;20644;-60
2022/04/06 05:16:16;;;;;;;;;;;;;;;17.36;48.32;99239.72;2081137;28;19963;-59
2022/04/06 05:17:17;;;;;;;;;;;;;;;17.40;48.00;99245.72;2081171;28;19931;-59
2022/04/06 05:18:17;;;;;;;;;;;;;;;17.42;48.09;99254.59;2082159;28;20632;-60
2022/04/06 05:19:17;;;;;;;;;;;;;;;17.47;48.05;99252.25;2081232;28;19927;-59